Roosevelt Island, New York
Current Conditions -  °F | °C
As of 3:51 PM on Friday 24 Oct 2014 (Local Time) from KNYC Reporting Station
Overcast Overcast  
Wind Chill: 62°   Ceiling: 4800
Heat Index: 62°   Visibility: 10mi
Dew Point: 44°   Wind: 6mph
Humidity: 52%   Direction: NA
Pressure: 29.79"   Gusts: NA
Location:  40.7621°N, 73.9496°W
Report Text: KNYC 241951Z AUTO VRB05KT 10SM OVC048 17/07 A2979 RMK AO2 SLP078 T01670067 $
Loading
Personal Weather Stations






























Interactive Weather Map
Tropical Storm Tracking
New forecast layout! Learn more

10-Day Weather Forecast

Advertisements
Track Severe Weather on mobile